sensor_id;sensor_type;location;lat;lon;timestamp;temperature;humidity
21174;DHT22;10744;50.854;4.380;2022-07-04T00:00:23;19.10;99.90
21174;DHT22;10744;50.854;4.380;2022-07-04T00:02:49;19.10;99.90
21174;DHT22;10744;50.854;4.380;2022-07-04T00:05:15;19.10;99.90
21174;DHT22;10744;50.854;4.380;2022-07-04T00:07:46;19.00;99.90
21174;DHT22;10744;50.854;4.380;2022-07-04T00:10:14;19.00;99.90
21174;DHT22;10744;50.854;4.380;2022-07-04T00:12:40;19.00;99.90
21174;DHT22;10744;50.854;4.380;2022-07-04T00:15:07;18.90;99.90
21174;DHT22;10744;50.854;4.380;2022-07-04T00:17:33;19.00;99.90
21174;DHT22;10744;50.854;4.380;2022-07-04T00:19:59;18.90;99.90
21174;DHT22;10744;50.854;4.380;2022-07-04T00:22:25;18.80;99.90
21174;DHT22;10744;50.854;4.380;2022-07-04T00:24:51;18.80;99.90
21174;DHT22;10744;50.854;4.380;2022-07-04T00:27:17;18.70;99.90
21174;DHT22;10744;50.854;4.380;2022-07-04T00:29:43;18.70;99.90
21174;DHT22;10744;50.854;4.380;2022-07-04T00:32:09;18.70;99.90
21174;DHT22;10744;50.854;4.380;2022-07-04T00:34:34;18.70;99.90
21174;DHT22;10744;50.854;4.380;2022-07-04T00:37:00;18.60;99.90
21174;DHT22;10744;50.854;4.380;2022-07-04T00:39:26;18.60;99.90
21174;DHT22;10744;50.854;4.380;2022-07-04T00:41:51;18.60;99.90
21174;DHT22;10744;50.854;4.380;2022-07-04T00:44:17;18.60;99.90
21174;DHT22;10744;50.854;4.380;2022-07-04T00:46:44;18.50;99.90
21174;DHT22;10744;50.854;4.380;2022-07-04T00:49:11;18.50;99.90
21174;DHT22;10744;50.854;4.380;2022-07-04T00:51:39;18.40;99.90
21174;DHT22;10744;50.854;4.380;2022-07-04T00:54:07;18.30;99.90
21174;DHT22;10744;50.854;4.380;2022-07-04T00:56:35;18.30;99.90
21174;DHT22;10744;50.854;4.380;2022-07-04T00:59:02;18.30;99.90
21174;DHT22;10744;50.854;4.380;2022-07-04T01:01:28;18.30;99.90
21174;DHT22;10744;50.854;4.380;2022-07-04T01:03:54;18.20;99.90
21174;DHT22;10744;50.854;4.380;2022-07-04T01:06:20;18.10;99.90
21174;DHT22;10744;50.854;4.380;2022-07-04T01:08:46;18.00;99.90
21174;DHT22;10744;50.854;4.380;2022-07-04T01:11:12;17.90;99.90
21174;DHT22;10744;50.854;4.380;2022-07-04T01:13:39;17.90;99.90
21174;DHT22;10744;50.854;4.380;2022-07-04T01:16:06;17.90;99.90
21174;DHT22;10744;50.854;4.380;2022-07-04T01:18:32;17.90;99.90
21174;DHT22;10744;50.854;4.380;2022-07-04T01:20:58;18.00;99.90
21174;DHT22;10744;50.854;4.380;2022-07-04T01:23:23;18.00;99.90
21174;DHT22;10744;50.854;4.380;2022-07-04T01:25:49;18.00;99.90
21174;DHT22;10744;50.854;4.380;2022-07-04T01:28:18;18.00;99.90
21174;DHT22;10744;50.854;4.380;2022-07-04T01:30:44;18.00;99.90
21174;DHT22;10744;50.854;4.380;2022-07-04T01:33:10;18.00;99.90
21174;DHT22;10744;50.854;4.380;2022-07-04T01:35:36;18.10;99.90
21174;DHT22;10744;50.854;4.380;2022-07-04T01:38:02;18.00;99.90
21174;DHT22;10744;50.854;4.380;2022-07-04T01:40:28;18.10;99.90
21174;DHT22;10744;50.854;4.380;2022-07-04T01:42:53;18.00;99.90
21174;DHT22;10744;50.854;4.380;2022-07-04T01:45:19;18.00;99.90
21174;DHT22;10744;50.854;4.380;2022-07-04T01:47:45;18.00;99.90
21174;DHT22;10744;50.854;4.380;2022-07-04T01:50:11;18.00;99.90
21174;DHT22;10744;50.854;4.380;2022-07-04T01:52:38;18.00;99.90
21174;DHT22;10744;50.854;4.380;2022-07-04T01:55:05;17.90;99.90
21174;DHT22;10744;50.854;4.380;2022-07-04T01:57:31;17.80;99.90
21174;DHT22;10744;50.854;4.380;2022-07-04T01:59:57;17.80;99.90
21174;DHT22;10744;50.854;4.380;2022-07-04T02:02:40;17.80;99.90
21174;DHT22;10744;50.854;4.380;2022-07-04T02:05:06;17.80;99.90
21174;DHT22;10744;50.854;4.380;2022-07-04T02:07:32;17.80;99.90
21174;DHT22;10744;50.854;4.380;2022-07-04T02:09:58;17.80;99.90
21174;DHT22;10744;50.854;4.380;2022-07-04T02:12:24;17.80;99.90
21174;DHT22;10744;50.854;4.380;2022-07-04T02:15:09;17.80;99.90
21174;DHT22;10744;50.854;4.380;2022-07-04T02:17:34;17.80;99.90
21174;DHT22;10744;50.854;4.380;2022-07-04T02:20:00;17.80;99.90
21174;DHT22;10744;50.854;4.380;2022-07-04T02:22:26;17.80;99.90
21174;DHT22;10744;50.854;4.380;2022-07-04T02:24:52;17.80;99.90
21174;DHT22;10744;50.854;4.380;2022-07-04T02:27:17;17.80;99.90
21174;DHT22;10744;50.854;4.380;2022-07-04T02:29:43;17.80;99.90
21174;DHT22;10744;50.854;4.380;2022-07-04T02:32:09;17.80;99.90
21174;DHT22;10744;50.854;4.380;2022-07-04T02:34:35;17.70;99.90
21174;DHT22;10744;50.854;4.380;2022-07-04T02:37:01;17.70;99.90
21174;DHT22;10744;50.854;4.380;2022-07-04T02:39:27;17.70;99.90
21174;DHT22;10744;50.854;4.380;2022-07-04T02:41:52;17.70;99.90
21174;DHT22;10744;50.854;4.380;2022-07-04T02:44:18;17.60;99.90
21174;DHT22;10744;50.854;4.380;2022-07-04T02:46:45;17.70;99.90
21174;DHT22;10744;50.854;4.380;2022-07-04T02:49:11;17.60;99.90
21174;DHT22;10744;50.854;4.380;2022-07-04T02:51:36;17.70;99.90
21174;DHT22;10744;50.854;4.380;2022-07-04T02:54:02;17.70;99.90
21174;DHT22;10744;50.854;4.380;2022-07-04T02:56:28;17.70;99.90
21174;DHT22;10744;50.854;4.380;2022-07-04T02:58:53;17.70;99.90
21174;DHT22;10744;50.854;4.380;2022-07-04T03:01:19;17.60;99.90
21174;DHT22;10744;50.854;4.380;2022-07-04T03:03:46;17.60;99.90
21174;DHT22;10744;50.854;4.380;2022-07-04T03:06:12;17.60;99.90
21174;DHT22;10744;50.854;4.380;2022-07-04T03:08:38;17.60;99.90
21174;DHT22;10744;50.854;4.380;2022-07-04T03:11:04;17.50;99.90
21174;DHT22;10744;50.854;4.380;2022-07-04T03:13:30;17.40;99.90
21174;DHT22;10744;50.854;4.380;2022-07-04T03:15:56;17.50;99.90
21174;DHT22;10744;50.854;4.380;2022-07-04T03:18:22;17.40;99.90
21174;DHT22;10744;50.854;4.380;2022-07-04T03:20:48;17.40;99.90
21174;DHT22;10744;50.854;4.380;2022-07-04T03:23:15;17.40;99.90
21174;DHT22;10744;50.854;4.380;2022-07-04T03:25:41;17.40;99.90
21174;DHT22;10744;50.854;4.380;2022-07-04T03:28:07;17.30;99.90
21174;DHT22;10744;50.854;4.380;2022-07-04T03:30:33;17.30;99.90
21174;DHT22;10744;50.854;4.380;2022-07-04T03:32:59;17.30;99.90
21174;DHT22;10744;50.854;4.380;2022-07-04T03:35:25;17.30;99.90
21174;DHT22;10744;50.854;4.380;2022-07-04T03:37:51;17.30;99.90
21174;DHT22;10744;50.854;4.380;2022-07-04T03:40:20;17.20;99.90
21174;DHT22;10744;50.854;4.380;2022-07-04T03:42:47;17.30;99.90
21174;DHT22;10744;50.854;4.380;2022-07-04T03:45:13;17.30;99.90
21174;DHT22;10744;50.854;4.380;2022-07-04T03:47:39;17.30;99.90
21174;DHT22;10744;50.854;4.380;2022-07-04T03:50:05;17.20;99.90
21174;DHT22;10744;50.854;4.380;2022-07-04T03:52:31;17.20;99.90
21174;DHT22;10744;50.854;4.380;2022-07-04T03:54:56;17.20;99.90
21174;DHT22;10744;50.854;4.380;2022-07-04T03:57:22;17.10;99.90
21174;DHT22;10744;50.854;4.380;2022-07-04T03:59:48;17.30;99.90
21174;DHT22;10744;50.854;4.380;2022-07-04T04:02:14;17.10;99.90
21174;DHT22;10744;50.854;4.380;2022-07-04T04:04:39;17.20;99.90
21174;DHT22;10744;50.854;4.380;2022-07-04T04:07:24;17.20;99.90
21174;DHT22;10744;50.854;4.380;2022-07-04T04:09:49;17.10;99.90
21174;DHT22;10744;50.854;4.380;2022-07-04T04:12:15;17.10;99.90
21174;DHT22;10744;50.854;4.380;2022-07-04T04:14:41;17.10;99.90
21174;DHT22;10744;50.854;4.380;2022-07-04T04:17:06;17.00;99.90
21174;DHT22;10744;50.854;4.380;2022-07-04T04:19:32;16.90;99.90
21174;DHT22;10744;50.854;4.380;2022-07-04T04:21:58;16.90;99.90
21174;DHT22;10744;50.854;4.380;2022-07-04T04:24:23;16.90;99.90
21174;DHT22;10744;50.854;4.380;2022-07-04T04:26:49;16.80;99.90
21174;DHT22;10744;50.854;4.380;2022-07-04T04:29:15;16.70;99.90
21174;DHT22;10744;50.854;4.380;2022-07-04T04:31:40;16.70;99.90
21174;DHT22;10744;50.854;4.380;2022-07-04T04:34:06;16.80;99.90
21174;DHT22;10744;50.854;4.380;2022-07-04T04:36:32;16.90;99.90
21174;DHT22;10744;50.854;4.380;2022-07-04T04:38:58;16.90;99.90
21174;DHT22;10744;50.854;4.380;2022-07-04T04:41:23;16.90;99.90
21174;DHT22;10744;50.854;4.380;2022-07-04T04:43:49;16.90;99.90
21174;DHT22;10744;50.854;4.380;2022-07-04T04:46:15;16.90;99.90
21174;DHT22;10744;50.854;4.380;2022-07-04T04:48:40;17.00;99.90
21174;DHT22;10744;50.854;4.380;2022-07-04T04:51:06;17.00;99.90
21174;DHT22;10744;50.854;4.380;2022-07-04T04:53:32;17.00;99.90
21174;DHT22;10744;50.854;4.380;2022-07-04T04:55:57;17.00;99.90
21174;DHT22;10744;50.854;4.380;2022-07-04T04:58:23;16.90;99.90
21174;DHT22;10744;50.854;4.380;2022-07-04T05:00:49;17.00;99.90
21174;DHT22;10744;50.854;4.380;2022-07-04T05:03:18;17.00;99.90
21174;DHT22;10744;50.854;4.380;2022-07-04T05:05:45;17.00;99.90
21174;DHT22;10744;50.854;4.380;2022-07-04T05:08:11;17.00;99.90
21174;DHT22;10744;50.854;4.380;2022-07-04T05:10:40;17.10;99.90
21174;DHT22;10744;50.854;4.380;2022-07-04T05:13:06;17.10;99.90
21174;DHT22;10744;50.854;4.380;2022-07-04T05:15:32;17.10;99.90
21174;DHT22;10744;50.854;4.380;2022-07-04T05:17:58;17.00;99.90
21174;DHT22;10744;50.854;4.380;2022-07-04T05:20:24;17.10;99.90
21174;DHT22;10744;50.854;4.380;2022-07-04T05:22:49;17.10;99.90
21174;DHT22;10744;50.854;4.380;2022-07-04T05:25:15;17.20;99.90
21174;DHT22;10744;50.854;4.380;2022-07-04T05:27:41;17.20;99.90
21174;DHT22;10744;50.854;4.380;2022-07-04T05:30:07;17.20;99.90
21174;DHT22;10744;50.854;4.380;2022-07-04T05:32:33;17.20;99.90
21174;DHT22;10744;50.854;4.380;2022-07-04T05:34:59;17.10;99.90
21174;DHT22;10744;50.854;4.380;2022-07-04T05:37:25;17.10;99.90
21174;DHT22;10744;50.854;4.380;2022-07-04T05:39:51;17.20;99.90
21174;DHT22;10744;50.854;4.380;2022-07-04T05:42:17;17.20;99.90
21174;DHT22;10744;50.854;4.380;2022-07-04T05:44:43;17.20;99.90
21174;DHT22;10744;50.854;4.380;2022-07-04T05:47:09;17.30;99.90
21174;DHT22;10744;50.854;4.380;2022-07-04T05:49:34;17.40;99.90
21174;DHT22;10744;50.854;4.380;2022-07-04T05:52:00;17.40;99.90
21174;DHT22;10744;50.854;4.380;2022-07-04T05:54:27;17.50;99.90
21174;DHT22;10744;50.854;4.380;2022-07-04T05:56:52;17.50;99.90
21174;DHT22;10744;50.854;4.380;2022-07-04T05:59:18;17.50;99.90
21174;DHT22;10744;50.854;4.380;2022-07-04T06:01:45;17.50;99.90
21174;DHT22;10744;50.854;4.380;2022-07-04T06:04:10;17.50;99.90
21174;DHT22;10744;50.854;4.380;2022-07-04T06:06:36;17.60;99.90
21174;DHT22;10744;50.854;4.380;2022-07-04T06:09:02;17.80;99.90
21174;DHT22;10744;50.854;4.380;2022-07-04T06:11:28;17.80;99.90
21174;DHT22;10744;50.854;4.380;2022-07-04T06:13:55;17.70;99.90
21174;DHT22;10744;50.854;4.380;2022-07-04T06:16:21;17.80;99.90
21174;DHT22;10744;50.854;4.380;2022-07-04T06:18:47;17.90;99.90
21174;DHT22;10744;50.854;4.380;2022-07-04T06:21:12;17.90;99.90
21174;DHT22;10744;50.854;4.380;2022-07-04T06:23:38;17.90;99.90
21174;DHT22;10744;50.854;4.380;2022-07-04T06:26:04;18.10;99.90
21174;DHT22;10744;50.854;4.380;2022-07-04T06:28:30;18.20;99.90
21174;DHT22;10744;50.854;4.380;2022-07-04T06:30:57;18.30;99.90
21174;DHT22;10744;50.854;4.380;2022-07-04T06:33:22;18.40;99.90
21174;DHT22;10744;50.854;4.380;2022-07-04T06:35:48;18.40;99.90
21174;DHT22;10744;50.854;4.380;2022-07-04T06:38:25;18.40;99.90
21174;DHT22;10744;50.854;4.380;2022-07-04T06:40:57;18.60;99.90
21174;DHT22;10744;50.854;4.380;2022-07-04T06:43:23;18.70;99.90
21174;DHT22;10744;50.854;4.380;2022-07-04T06:45:49;18.70;99.90
21174;DHT22;10744;50.854;4.380;2022-07-04T06:48:16;18.70;99.90
21174;DHT22;10744;50.854;4.380;2022-07-04T06:50:42;18.80;99.90
21174;DHT22;10744;50.854;4.380;2022-07-04T06:53:09;18.90;99.90
21174;DHT22;10744;50.854;4.380;2022-07-04T06:55:39;18.90;99.90
21174;DHT22;10744;50.854;4.380;2022-07-04T06:58:06;19.00;99.90
21174;DHT22;10744;50.854;4.380;2022-07-04T07:00:32;18.90;99.90
21174;DHT22;10744;50.854;4.380;2022-07-04T07:02:59;19.00;99.90
21174;DHT22;10744;50.854;4.380;2022-07-04T07:05:27;19.10;99.90
21174;DHT22;10744;50.854;4.380;2022-07-04T07:07:53;19.20;99.90
21174;DHT22;10744;50.854;4.380;2022-07-04T07:10:19;19.20;99.90
21174;DHT22;10744;50.854;4.380;2022-07-04T07:12:45;19.20;99.90
21174;DHT22;10744;50.854;4.380;2022-07-04T07:15:11;19.40;99.90
21174;DHT22;10744;50.854;4.380;2022-07-04T07:17:39;19.70;99.90
21174;DHT22;10744;50.854;4.380;2022-07-04T07:20:05;19.70;99.90
21174;DHT22;10744;50.854;4.380;2022-07-04T07:22:31;19.80;99.90
21174;DHT22;10744;50.854;4.380;2022-07-04T07:24:57;19.90;99.90
21174;DHT22;10744;50.854;4.380;2022-07-04T07:27:23;20.00;99.90
21174;DHT22;10744;50.854;4.380;2022-07-04T07:29:49;20.00;99.90
21174;DHT22;10744;50.854;4.380;2022-07-04T07:32:14;20.10;99.90
21174;DHT22;10744;50.854;4.380;2022-07-04T07:34:40;20.10;99.90
21174;DHT22;10744;50.854;4.380;2022-07-04T07:37:06;20.30;99.90
21174;DHT22;10744;50.854;4.380;2022-07-04T07:39:32;20.30;99.90
21174;DHT22;10744;50.854;4.380;2022-07-04T07:41:58;20.30;99.90
21174;DHT22;10744;50.854;4.380;2022-07-04T07:44:24;20.40;99.90
21174;DHT22;10744;50.854;4.380;2022-07-04T07:46:50;20.40;99.90
21174;DHT22;10744;50.854;4.380;2022-07-04T07:49:16;20.60;99.90
21174;DHT22;10744;50.854;4.380;2022-07-04T07:51:41;20.60;99.90
21174;DHT22;10744;50.854;4.380;2022-07-04T07:54:07;20.80;99.90
21174;DHT22;10744;50.854;4.380;2022-07-04T07:56:32;20.80;99.90
21174;DHT22;10744;50.854;4.380;2022-07-04T07:58:58;20.70;99.90
21174;DHT22;10744;50.854;4.380;2022-07-04T08:01:24;20.60;99.90
21174;DHT22;10744;50.854;4.380;2022-07-04T08:03:50;20.60;99.90
21174;DHT22;10744;50.854;4.380;2022-07-04T08:06:34;20.70;99.90
21174;DHT22;10744;50.854;4.380;2022-07-04T08:09:00;20.90;99.90
21174;DHT22;10744;50.854;4.380;2022-07-04T08:11:26;20.90;99.90
21174;DHT22;10744;50.854;4.380;2022-07-04T08:13:52;20.90;99.90
21174;DHT22;10744;50.854;4.380;2022-07-04T08:16:18;21.00;99.90
21174;DHT22;10744;50.854;4.380;2022-07-04T08:18:44;21.00;99.90
21174;DHT22;10744;50.854;4.380;2022-07-04T08:21:10;20.90;99.90
21174;DHT22;10744;50.854;4.380;2022-07-04T08:23:36;20.90;99.90
21174;DHT22;10744;50.854;4.380;2022-07-04T08:26:03;21.00;99.90
21174;DHT22;10744;50.854;4.380;2022-07-04T08:28:29;21.10;99.90
21174;DHT22;10744;50.854;4.380;2022-07-04T08:30:56;21.10;99.90
21174;DHT22;10744;50.854;4.380;2022-07-04T08:33:22;21.20;99.90
21174;DHT22;10744;50.854;4.380;2022-07-04T08:35:48;21.40;99.90
21174;DHT22;10744;50.854;4.380;2022-07-04T08:38:15;21.50;99.90
21174;DHT22;10744;50.854;4.380;2022-07-04T08:40:41;21.50;99.20
21174;DHT22;10744;50.854;4.380;2022-07-04T08:43:13;21.60;99.80
21174;DHT22;10744;50.854;4.380;2022-07-04T08:45:41;21.60;99.90
21174;DHT22;10744;50.854;4.380;2022-07-04T08:48:08;21.70;99.30
21174;DHT22;10744;50.854;4.380;2022-07-04T08:50:38;21.80;98.80
21174;DHT22;10744;50.854;4.380;2022-07-04T08:53:10;21.90;99.10
21174;DHT22;10744;50.854;4.380;2022-07-04T08:55:38;22.00;98.40
21174;DHT22;10744;50.854;4.380;2022-07-04T08:58:24;22.00;98.10
21174;DHT22;10744;50.854;4.380;2022-07-04T09:01:04;22.10;98.90
21174;DHT22;10744;50.854;4.380;2022-07-04T09:03:31;22.20;99.50
21174;DHT22;10744;50.854;4.380;2022-07-04T09:05:57;22.30;99.50
21174;DHT22;10744;50.854;4.380;2022-07-04T09:08:24;22.20;99.30
21174;DHT22;10744;50.854;4.380;2022-07-04T09:10:50;22.30;99.50
21174;DHT22;10744;50.854;4.380;2022-07-04T09:13:17;22.20;99.10
21174;DHT22;10744;50.854;4.380;2022-07-04T09:15:45;22.40;99.10
21174;DHT22;10744;50.854;4.380;2022-07-04T09:18:24;22.40;99.10
21174;DHT22;10744;50.854;4.380;2022-07-04T09:20:52;22.40;99.20
21174;DHT22;10744;50.854;4.380;2022-07-04T09:23:24;22.30;99.00
21174;DHT22;10744;50.854;4.380;2022-07-04T09:28:33;22.20;98.60
21174;DHT22;10744;50.854;4.380;2022-07-04T09:30:59;22.10;98.80
21174;DHT22;10744;50.854;4.380;2022-07-04T09:36:13;22.30;98.70
21174;DHT22;10744;50.854;4.380;2022-07-04T09:38:39;22.40;98.40
21174;DHT22;10744;50.854;4.380;2022-07-04T09:41:05;22.50;98.40
21174;DHT22;10744;50.854;4.380;2022-07-04T09:44:05;22.60;98.70
21174;DHT22;10744;50.854;4.380;2022-07-04T09:46:32;22.70;97.90
21174;DHT22;10744;50.854;4.380;2022-07-04T09:48:59;22.70;98.10
21174;DHT22;10744;50.854;4.380;2022-07-04T09:54:22;22.90;97.70
21174;DHT22;10744;50.854;4.380;2022-07-04T09:56:52;23.00;97.80
21174;DHT22;10744;50.854;4.380;2022-07-04T09:59:19;23.00;96.90
21174;DHT22;10744;50.854;4.380;2022-07-04T10:01:45;23.10;97.20
21174;DHT22;10744;50.854;4.380;2022-07-04T10:04:11;23.20;97.40
21174;DHT22;10744;50.854;4.380;2022-07-04T10:06:41;23.30;96.90
21174;DHT22;10744;50.854;4.380;2022-07-04T10:09:13;23.20;96.40
21174;DHT22;10744;50.854;4.380;2022-07-04T10:11:40;23.00;96.40
21174;DHT22;10744;50.854;4.380;2022-07-04T10:14:08;22.90;96.50
21174;DHT22;10744;50.854;4.380;2022-07-04T10:16:34;22.90;96.90
21174;DHT22;10744;50.854;4.380;2022-07-04T10:19:00;22.90;97.10
21174;DHT22;10744;50.854;4.380;2022-07-04T10:21:26;23.10;96.40
21174;DHT22;10744;50.854;4.380;2022-07-04T10:23:53;23.20;96.20
21174;DHT22;10744;50.854;4.380;2022-07-04T10:26:19;23.30;95.90
21174;DHT22;10744;50.854;4.380;2022-07-04T10:28:46;23.20;95.70
21174;DHT22;10744;50.854;4.380;2022-07-04T10:31:14;23.00;96.50
21174;DHT22;10744;50.854;4.380;2022-07-04T10:33:40;22.90;96.70
21174;DHT22;10744;50.854;4.380;2022-07-04T10:36:26;23.10;96.80
21174;DHT22;10744;50.854;4.380;2022-07-04T10:38:57;23.40;96.70
21174;DHT22;10744;50.854;4.380;2022-07-04T10:41:25;23.60;96.40
21174;DHT22;10744;50.854;4.380;2022-07-04T10:43:52;23.70;95.50
21174;DHT22;10744;50.854;4.380;2022-07-04T10:46:25;23.60;95.70
21174;DHT22;10744;50.854;4.380;2022-07-04T10:48:53;23.70;96.40
21174;DHT22;10744;50.854;4.380;2022-07-04T10:56:40;23.40;97.30
21174;DHT22;10744;50.854;4.380;2022-07-04T11:01:52;23.40;97.90
21174;DHT22;10744;50.854;4.380;2022-07-04T11:18:12;24.50;95.70
21174;DHT22;10744;50.854;4.380;2022-07-04T11:20:42;24.40;95.50
21174;DHT22;10744;50.854;4.380;2022-07-04T11:23:19;24.20;95.20
21174;DHT22;10744;50.854;4.380;2022-07-04T11:25:46;24.20;94.90
21174;DHT22;10744;50.854;4.380;2022-07-04T11:30:51;24.20;95.60
21174;DHT22;10744;50.854;4.380;2022-07-04T11:33:18;24.50;95.30
21174;DHT22;10744;50.854;4.380;2022-07-04T11:35:44;24.50;94.50
21174;DHT22;10744;50.854;4.380;2022-07-04T11:38:23;24.60;94.70
21174;DHT22;10744;50.854;4.380;2022-07-04T11:40:49;24.60;94.50
21174;DHT22;10744;50.854;4.380;2022-07-04T11:43:33;24.50;95.00
21174;DHT22;10744;50.854;4.380;2022-07-04T11:46:28;24.50;95.20
21174;DHT22;10744;50.854;4.380;2022-07-04T11:49:07;24.20;94.70
21174;DHT22;10744;50.854;4.380;2022-07-04T11:51:33;23.90;95.70
21174;DHT22;10744;50.854;4.380;2022-07-04T11:54:04;24.00;95.20
21174;DHT22;10744;50.854;4.380;2022-07-04T11:56:30;24.10;94.40
21174;DHT22;10744;50.854;4.380;2022-07-04T11:58:56;24.20;94.20
21174;DHT22;10744;50.854;4.380;2022-07-04T12:01:33;24.40;93.40
21174;DHT22;10744;50.854;4.380;2022-07-04T12:04:14;24.50;93.40
21174;DHT22;10744;50.854;4.380;2022-07-04T12:06:41;24.70;93.40
21174;DHT22;10744;50.854;4.380;2022-07-04T12:09:07;24.60;93.90
21174;DHT22;10744;50.854;4.380;2022-07-04T12:11:58;24.70;93.80
21174;DHT22;10744;50.854;4.380;2022-07-04T12:14:25;24.70;93.90
21174;DHT22;10744;50.854;4.380;2022-07-04T12:17:18;24.60;94.40
21174;DHT22;10744;50.854;4.380;2022-07-04T12:22:39;24.20;95.10
21174;DHT22;10744;50.854;4.380;2022-07-04T12:25:07;24.00;95.20
21174;DHT22;10744;50.854;4.380;2022-07-04T12:27:34;24.10;95.40
21174;DHT22;10744;50.854;4.380;2022-07-04T12:30:01;24.40;94.50
21174;DHT22;10744;50.854;4.380;2022-07-04T12:32:47;24.60;94.50
21174;DHT22;10744;50.854;4.380;2022-07-04T12:35:36;24.70;93.10
21174;DHT22;10744;50.854;4.380;2022-07-04T12:38:06;24.70;93.70
21174;DHT22;10744;50.854;4.380;2022-07-04T12:40:33;24.80;93.20
21174;DHT22;10744;50.854;4.380;2022-07-04T12:42:59;24.80;93.40
21174;DHT22;10744;50.854;4.380;2022-07-04T12:45:26;24.80;93.70
21174;DHT22;10744;50.854;4.380;2022-07-04T12:47:51;25.00;92.80
21174;DHT22;10744;50.854;4.380;2022-07-04T12:50:26;25.10;92.10
21174;DHT22;10744;50.854;4.380;2022-07-04T12:52:52;25.20;92.00
21174;DHT22;10744;50.854;4.380;2022-07-04T12:55:18;25.20;91.20
21174;DHT22;10744;50.854;4.380;2022-07-04T12:57:44;25.00;91.60
21174;DHT22;10744;50.854;4.380;2022-07-04T13:00:10;25.10;90.90
21174;DHT22;10744;50.854;4.380;2022-07-04T13:02:35;25.20;90.50
21174;DHT22;10744;50.854;4.380;2022-07-04T13:05:01;25.40;90.10
21174;DHT22;10744;50.854;4.380;2022-07-04T13:07:27;25.50;88.40
21174;DHT22;10744;50.854;4.380;2022-07-04T13:09:52;25.50;89.70
21174;DHT22;10744;50.854;4.380;2022-07-04T13:12:18;25.60;89.20
21174;DHT22;10744;50.854;4.380;2022-07-04T13:14:53;25.70;86.20
21174;DHT22;10744;50.854;4.380;2022-07-04T13:17:20;25.80;85.00
21174;DHT22;10744;50.854;4.380;2022-07-04T13:19:46;25.80;84.80
21174;DHT22;10744;50.854;4.380;2022-07-04T13:22:11;25.90;86.20
21174;DHT22;10744;50.854;4.380;2022-07-04T13:24:37;26.00;85.80
21174;DHT22;10744;50.854;4.380;2022-07-04T13:27:03;25.90;87.80
21174;DHT22;10744;50.854;4.380;2022-07-04T13:29:29;26.00;85.60
21174;DHT22;10744;50.854;4.380;2022-07-04T13:31:54;26.10;87.40
21174;DHT22;10744;50.854;4.380;2022-07-04T13:34:20;26.00;85.50
21174;DHT22;10744;50.854;4.380;2022-07-04T13:36:46;26.00;87.20
21174;DHT22;10744;50.854;4.380;2022-07-04T13:39:12;26.10;86.70
21174;DHT22;10744;50.854;4.380;2022-07-04T13:41:38;26.40;84.80
21174;DHT22;10744;50.854;4.380;2022-07-04T13:44:05;26.40;84.70
21174;DHT22;10744;50.854;4.380;2022-07-04T13:46:31;26.40;85.30
21174;DHT22;10744;50.854;4.380;2022-07-04T13:49:03;26.40;85.40
21174;DHT22;10744;50.854;4.380;2022-07-04T13:51:30;26.20;86.60
21174;DHT22;10744;50.854;4.380;2022-07-04T13:53:56;25.90;87.20
21174;DHT22;10744;50.854;4.380;2022-07-04T13:56:21;25.80;88.10
21174;DHT22;10744;50.854;4.380;2022-07-04T13:58:47;26.00;87.50
21174;DHT22;10744;50.854;4.380;2022-07-04T14:01:13;26.00;87.40
21174;DHT22;10744;50.854;4.380;2022-07-04T14:03:48;25.90;87.20
21174;DHT22;10744;50.854;4.380;2022-07-04T14:06:15;25.80;86.80
21174;DHT22;10744;50.854;4.380;2022-07-04T14:08:41;25.70;87.90
21174;DHT22;10744;50.854;4.380;2022-07-04T14:11:07;25.80;88.50
21174;DHT22;10744;50.854;4.380;2022-07-04T14:13:33;25.90;87.80
21174;DHT22;10744;50.854;4.380;2022-07-04T14:15:59;26.00;87.30
21174;DHT22;10744;50.854;4.380;2022-07-04T14:18:26;26.10;87.60
21174;DHT22;10744;50.854;4.380;2022-07-04T14:20:51;26.30;88.10
21174;DHT22;10744;50.854;4.380;2022-07-04T14:23:17;26.40;88.20
21174;DHT22;10744;50.854;4.380;2022-07-04T14:26:03;26.60;88.40
21174;DHT22;10744;50.854;4.380;2022-07-04T14:28:29;27.00;88.00
21174;DHT22;10744;50.854;4.380;2022-07-04T14:30:55;27.30;87.40
21174;DHT22;10744;50.854;4.380;2022-07-04T14:33:21;27.50;86.30
21174;DHT22;10744;50.854;4.380;2022-07-04T14:35:46;27.70;85.90
21174;DHT22;10744;50.854;4.380;2022-07-04T14:38:12;27.90;84.20
21174;DHT22;10744;50.854;4.380;2022-07-04T14:40:37;28.30;83.90
21174;DHT22;10744;50.854;4.380;2022-07-04T14:43:05;28.60;82.60
21174;DHT22;10744;50.854;4.380;2022-07-04T14:45:30;28.90;81.50
21174;DHT22;10744;50.854;4.380;2022-07-04T14:47:56;28.90;81.40
21174;DHT22;10744;50.854;4.380;2022-07-04T14:50:22;28.90;81.10
21174;DHT22;10744;50.854;4.380;2022-07-04T14:52:49;28.90;81.10
21174;DHT22;10744;50.854;4.380;2022-07-04T14:55:15;28.80;81.10
21174;DHT22;10744;50.854;4.380;2022-07-04T14:57:41;28.50;81.60
21174;DHT22;10744;50.854;4.380;2022-07-04T15:00:07;28.10;82.20
21174;DHT22;10744;50.854;4.380;2022-07-04T15:02:32;27.80;83.00
21174;DHT22;10744;50.854;4.380;2022-07-04T15:04:58;27.90;82.70
21174;DHT22;10744;50.854;4.380;2022-07-04T15:07:24;27.90;83.20
21174;DHT22;10744;50.854;4.380;2022-07-04T15:09:49;27.90;83.60
21174;DHT22;10744;50.854;4.380;2022-07-04T15:12:15;27.90;82.90
21174;DHT22;10744;50.854;4.380;2022-07-04T15:14:41;27.90;82.50
21174;DHT22;10744;50.854;4.380;2022-07-04T15:17:06;28.10;82.30
21174;DHT22;10744;50.854;4.380;2022-07-04T15:19:32;27.90;81.70
21174;DHT22;10744;50.854;4.380;2022-07-04T15:22:17;28.00;82.00
21174;DHT22;10744;50.854;4.380;2022-07-04T15:25:02;28.20;81.10
21174;DHT22;10744;50.854;4.380;2022-07-04T15:27:27;28.20;80.50
21174;DHT22;10744;50.854;4.380;2022-07-04T15:29:53;28.20;80.80
21174;DHT22;10744;50.854;4.380;2022-07-04T15:32:19;28.60;80.80
21174;DHT22;10744;50.854;4.380;2022-07-04T15:34:44;28.80;79.10
21174;DHT22;10744;50.854;4.380;2022-07-04T15:37:10;29.10;79.10
21174;DHT22;10744;50.854;4.380;2022-07-04T15:39:35;29.50;78.30
21174;DHT22;10744;50.854;4.380;2022-07-04T15:42:03;29.70;77.40
21174;DHT22;10744;50.854;4.380;2022-07-04T15:44:29;30.30;76.50
21174;DHT22;10744;50.854;4.380;2022-07-04T15:46:54;30.70;75.70
21174;DHT22;10744;50.854;4.380;2022-07-04T15:49:36;30.90;75.10
21174;DHT22;10744;50.854;4.380;2022-07-04T15:52:03;30.80;74.10
21174;DHT22;10744;50.854;4.380;2022-07-04T15:54:29;30.80;75.30
21174;DHT22;10744;50.854;4.380;2022-07-04T15:56:55;30.90;75.30
21174;DHT22;10744;50.854;4.380;2022-07-04T15:59:21;31.10;75.00
21174;DHT22;10744;50.854;4.380;2022-07-04T16:01:46;31.00;74.40
21174;DHT22;10744;50.854;4.380;2022-07-04T16:04:12;31.10;74.80
21174;DHT22;10744;50.854;4.380;2022-07-04T16:06:38;31.30;73.70